createdAt,value
2023-04-10T00:04:58.430Z,57.90
2023-04-10T00:10:01.278Z,59.58
2023-04-10T00:15:04.415Z,64.70
2023-04-10T00:20:10.068Z,61.05
2023-04-10T00:25:12.898Z,57.55
2023-04-10T00:30:15.950Z,63.85
2023-04-10T00:35:20.123Z,60.83
2023-04-10T00:40:22.911Z,57.10
2023-04-10T00:45:25.879Z,58.47
2023-04-10T00:50:30.039Z,57.08
2023-04-10T00:55:32.885Z,54.47
2023-04-10T01:00:35.757Z,55.47
2023-04-10T01:05:46.282Z,55.75
2023-04-10T01:10:54.894Z,53.80
2023-04-10T01:16:02.631Z,59.40
2023-04-10T01:21:09.363Z,51.65
2023-04-10T01:26:13.318Z,54.72
2023-04-10T01:31:22.393Z,48.38
2023-04-10T01:36:29.481Z,50.30
2023-04-10T01:41:34.379Z,49.70
2023-04-10T01:46:40.104Z,43.22
2023-04-10T01:51:43.879Z,45.65
2023-04-10T01:56:48.421Z,45.42
2023-04-10T02:01:58.494Z,50.78
2023-04-10T02:07:04.937Z,48.85
2023-04-10T02:12:11.393Z,47.85
2023-04-10T02:17:19.502Z,48.95
2023-04-10T02:22:27.865Z,48.03
2023-04-10T02:27:31.523Z,45.65
2023-04-10T02:32:36.877Z,53.15
2023-04-10T02:37:39.895Z,49.25
2023-04-10T02:42:44.050Z,48.58
2023-04-10T02:47:48.935Z,49.35
2023-04-10T02:52:51.936Z,49.95
2023-04-10T02:57:54.835Z,47.35
2023-04-10T03:02:59.213Z,50.35
2023-04-10T03:08:08.077Z,49.85
2023-04-10T03:13:10.996Z,48.50
2023-04-10T03:18:15.496Z,46.85
2023-04-10T03:23:20.591Z,50.35
2023-04-10T03:28:23.696Z,44.15
2023-04-10T03:33:27.990Z,48.45
2023-04-10T03:38:31.153Z,43.75
2023-04-10T03:43:34.321Z,46.53
2023-04-10T03:48:41.805Z,46.55
2023-04-10T03:53:46.107Z,42.60
2023-04-10T03:58:51.933Z,44.03
2023-04-10T04:03:57.680Z,47.65
2023-04-10T04:09:20.781Z,51.67
2023-04-10T04:14:44.732Z,45.85
2023-04-10T04:20:02.567Z,44.97
2023-04-10T04:25:25.821Z,42.92
2023-04-10T04:30:50.993Z,46.60
2023-04-10T04:35:59.752Z,44.50
2023-04-10T04:41:16.386Z,45.22
2023-04-10T04:46:36.058Z,43.60
2023-04-10T04:52:12.022Z,45.67
2023-04-10T04:57:18.418Z,42.33
2023-04-10T05:02:41.949Z,43.00
2023-04-10T05:08:06.244Z,40.40
2023-04-10T05:13:20.380Z,41.55
2023-04-10T05:24:05.227Z,38.28
2023-04-10T05:29:28.273Z,44.83
2023-04-10T05:35:03.296Z,39.92
2023-04-10T05:40:12.726Z,40.38
2023-04-10T05:45:33.918Z,36.25
2023-04-10T05:50:54.904Z,36.28
2023-04-10T05:56:18.975Z,24.17
2023-04-10T06:01:38.944Z,29.92
2023-04-10T06:06:41.969Z,36.78
2023-04-10T06:11:47.622Z,31.48
2023-04-10T06:16:54.169Z,29.95
2023-04-10T06:21:57.084Z,30.60
2023-04-10T06:27:01.233Z,31.98
2023-04-10T06:32:04.182Z,30.25
2023-04-10T06:37:11.427Z,35.05
2023-04-10T06:42:15.642Z,29.85
2023-04-10T06:47:36.007Z,30.48
2023-04-10T06:52:38.898Z,29.73
2023-04-10T06:57:43.459Z,32.58
2023-04-10T07:02:46.402Z,28.05
2023-04-10T07:07:50.593Z,32.78
2023-04-10T07:12:54.728Z,27.02
2023-04-10T07:17:57.602Z,27.83
2023-04-10T07:23:00.467Z,26.88
2023-04-10T07:28:04.725Z,25.65
2023-04-10T07:33:07.918Z,25.90
2023-04-10T07:38:13.083Z,25.40
2023-04-10T07:43:17.283Z,23.95
2023-04-10T07:48:20.076Z,23.30
2023-04-10T07:53:23.078Z,19.58
2023-04-10T07:58:27.283Z,18.45
2023-04-10T08:03:30.354Z,18.15
2023-04-10T08:08:33.264Z,16.95
2023-04-10T08:13:37.451Z,16.77
2023-04-10T08:18:40.413Z,10.82
2023-04-10T08:23:43.252Z,10.70
2023-04-10T08:28:49.362Z,9.77
2023-04-10T08:33:52.755Z,11.15
2023-04-10T08:38:56.006Z,10.60
2023-04-10T08:44:00.221Z,10.85
2023-04-10T08:49:04.174Z,9.65
2023-04-10T08:54:09.041Z,12.95
2023-04-10T08:59:13.342Z,9.38
2023-04-10T09:04:16.959Z,10.77
2023-04-10T09:09:19.918Z,9.40
2023-04-10T09:14:25.246Z,10.82
2023-04-10T09:19:32.184Z,10.85
2023-04-10T09:24:38.156Z,11.45
2023-04-10T09:29:44.171Z,11.07
2023-04-10T09:34:54.852Z,9.90
2023-04-10T09:39:57.952Z,9.77
2023-04-10T09:45:02.908Z,12.13
2023-04-10T09:50:06.400Z,13.18
2023-04-10T09:55:17.855Z,10.35
2023-04-10T10:00:22.072Z,19.30
2023-04-10T10:05:28.105Z,7.43
2023-04-10T10:10:31.127Z,8.13
2023-04-10T10:15:42.729Z,9.45
2023-04-10T10:20:47.252Z,6.73
2023-04-10T10:25:51.464Z,7.90
2023-04-10T10:30:56.338Z,9.05
2023-04-10T10:36:01.342Z,6.22
2023-04-10T10:41:17.170Z,8.38
2023-04-10T10:46:31.003Z,6.70
2023-04-10T10:51:47.807Z,8.38
2023-04-10T10:56:50.839Z,7.05
2023-04-10T11:02:16.817Z,7.13
2023-04-10T11:07:20.093Z,7.25
2023-04-10T11:12:24.132Z,7.43
2023-04-10T11:17:54.373Z,6.38
2023-04-10T11:23:11.883Z,8.20
2023-04-10T11:28:35.182Z,6.68
2023-04-10T11:33:39.457Z,5.90
2023-04-10T11:38:42.346Z,6.43
2023-04-10T11:43:45.343Z,4.68
2023-04-10T11:48:53.420Z,3.97
2023-04-10T11:54:09.571Z,7.65
2023-04-10T11:59:14.407Z,4.70
2023-04-10T12:04:20.857Z,4.85
2023-04-10T12:09:24.766Z,11.02
2023-04-10T12:14:33.007Z,5.57
2023-04-10T12:19:39.388Z,6.70
2023-04-10T12:24:43.871Z,6.78
2023-04-10T12:29:47.426Z,5.65
2023-04-10T12:34:57.487Z,4.80
2023-04-10T12:40:07.064Z,5.03
2023-04-10T12:45:13.785Z,4.82
2023-04-10T12:50:20.867Z,6.43
2023-04-10T12:55:23.794Z,4.68
2023-04-10T13:00:26.694Z,4.68
2023-04-10T13:05:31.114Z,5.35
2023-04-10T13:10:33.966Z,4.40
2023-04-10T13:15:36.857Z,5.22
2023-04-10T13:20:42.146Z,4.90
2023-04-10T13:25:45.044Z,4.30
2023-04-10T13:30:47.945Z,3.53
2023-04-10T13:35:52.125Z,3.40
2023-04-10T13:40:55.080Z,3.67
2023-04-10T13:45:57.926Z,2.95
2023-04-10T13:51:02.074Z,3.00
2023-04-10T13:56:06.445Z,4.70
2023-04-10T14:01:09.315Z,2.63
2023-04-10T14:06:14.224Z,2.45
2023-04-10T14:11:17.173Z,2.30
2023-04-10T14:16:20.066Z,2.50
2023-04-10T14:21:24.374Z,3.95
2023-04-10T14:26:27.279Z,2.15
2023-04-10T14:31:30.471Z,3.50
2023-04-10T14:36:34.645Z,2.38
2023-04-10T14:41:37.441Z,3.10
2023-04-10T14:46:40.227Z,2.60
2023-04-10T14:51:48.459Z,2.65
2023-04-10T14:56:51.485Z,2.80
2023-04-10T15:01:54.813Z,2.78
2023-04-10T15:06:59.112Z,2.28
2023-04-10T15:12:02.194Z,3.25
2023-04-10T15:17:05.300Z,2.28
2023-04-10T15:22:09.476Z,2.65
2023-04-10T15:27:12.256Z,3.00
2023-04-10T15:32:15.069Z,2.28
2023-04-10T15:37:19.232Z,3.20
2023-04-10T15:42:22.056Z,3.03
2023-04-10T15:47:24.899Z,3.08
2023-04-10T15:52:31.727Z,4.63
2023-04-10T15:57:34.705Z,2.63
2023-04-10T16:02:37.831Z,2.25
2023-04-10T16:07:43.773Z,3.03
2023-04-10T16:12:46.902Z,2.30
2023-04-10T16:17:49.825Z,3.42
2023-04-10T16:22:54.566Z,2.42
2023-04-10T16:27:57.646Z,2.30
2023-04-10T16:33:00.570Z,2.33
2023-04-10T16:38:04.834Z,3.42
2023-04-10T16:43:07.675Z,3.05
2023-04-10T16:48:10.717Z,2.55
2023-04-10T16:53:14.949Z,3.20
2023-04-10T16:58:17.752Z,2.78
2023-04-10T17:03:20.651Z,2.80
2023-04-10T17:08:24.882Z,4.57
2023-04-10T17:13:27.817Z,3.83
2023-04-10T17:18:30.805Z,3.13
2023-04-10T17:23:34.987Z,4.35
2023-04-10T17:28:37.839Z,2.70
2023-04-10T17:33:41.781Z,3.13
2023-04-10T17:38:46.027Z,2.70
2023-04-10T17:43:49.509Z,3.33
2023-04-10T17:48:52.497Z,3.65
2023-04-10T17:53:56.947Z,3.88
2023-04-10T17:59:00.593Z,3.83
2023-04-10T18:04:04.478Z,3.58
2023-04-10T18:09:08.804Z,3.63
2023-04-10T18:14:11.668Z,3.83
2023-04-10T18:19:14.546Z,3.58
2023-04-10T18:24:18.824Z,3.22
2023-04-10T18:29:22.676Z,3.03
2023-04-10T18:34:25.484Z,4.22
2023-04-10T18:39:29.631Z,5.13
2023-04-10T18:44:34.507Z,3.70
2023-04-10T18:49:37.667Z,2.88
2023-04-10T18:54:41.941Z,3.90
2023-04-10T18:59:45.235Z,2.75
2023-04-10T19:04:48.370Z,3.35
2023-04-10T19:09:53.087Z,3.30
2023-04-10T19:14:55.940Z,3.25
2023-04-10T19:20:00.406Z,2.90
2023-04-10T19:25:04.784Z,2.78
2023-04-10T19:30:09.035Z,3.15
2023-04-10T19:35:11.884Z,2.30
2023-04-10T19:40:16.369Z,3.55
2023-04-10T19:45:20.415Z,3.65
2023-04-10T19:50:23.489Z,3.17
2023-04-10T19:55:28.525Z,4.63
2023-04-10T20:00:31.363Z,5.90
2023-04-10T20:05:34.201Z,6.93
2023-04-10T20:10:38.601Z,5.50
2023-04-10T20:15:41.497Z,6.03
2023-04-10T20:20:44.431Z,5.40
2023-04-10T20:25:49.120Z,5.38
2023-04-10T20:30:51.920Z,7.28
2023-04-10T20:35:54.837Z,8.52
2023-04-10T20:40:59.108Z,8.60
2023-04-10T20:46:04.038Z,6.05
2023-04-10T20:51:07.510Z,6.18
2023-04-10T20:56:11.920Z,7.75
2023-04-10T21:01:14.795Z,4.97
2023-04-10T21:06:18.197Z,8.63
2023-04-10T21:11:22.712Z,4.75
2023-04-10T21:16:25.522Z,4.97
2023-04-10T21:21:28.349Z,4.88
2023-04-10T21:26:32.573Z,5.15
2023-04-10T21:31:35.551Z,9.02
2023-04-10T21:36:39.430Z,8.40
2023-04-10T21:41:45.066Z,9.88
2023-04-10T21:46:47.926Z,7.20
2023-04-10T21:51:50.774Z,8.38
2023-04-10T21:56:54.945Z,8.40
2023-04-10T22:01:57.823Z,7.18
2023-04-10T22:07:00.653Z,9.32
2023-04-10T22:12:05.104Z,7.97
2023-04-10T22:17:08.111Z,6.75
2023-04-10T22:22:11.091Z,4.55
2023-04-10T22:27:15.333Z,8.05
2023-04-10T22:32:18.150Z,4.00
2023-04-10T22:37:20.914Z,4.03
2023-04-10T22:42:25.180Z,6.88
2023-04-10T22:47:28.120Z,3.58
2023-04-10T22:52:30.939Z,2.70
2023-04-10T22:57:35.325Z,3.10
2023-04-10T23:02:38.205Z,1.90
2023-04-10T23:07:41.165Z,4.18
2023-04-10T23:12:45.355Z,5.70
2023-04-10T23:17:48.222Z,3.65
2023-04-10T23:22:51.114Z,3.10
2023-04-10T23:27:55.534Z,3.83
2023-04-10T23:32:58.682Z,4.70
2023-04-10T23:38:01.760Z,3.85
2023-04-10T23:43:06.307Z,4.22
2023-04-10T23:48:11.678Z,3.63
2023-04-10T23:53:14.788Z,2.58
2023-04-10T23:58:19.038Z,3.28
